createdAt,value
2017-06-03T00:07:25.578Z,0
2017-06-03T00:17:34.858Z,0
2017-06-03T00:27:44.156Z,0
2017-06-03T00:37:53.454Z,0
2017-06-03T00:48:02.679Z,0
2017-06-03T00:58:11.973Z,0
2017-06-03T01:08:21.297Z,0
2017-06-03T01:18:30.591Z,0
2017-06-03T01:28:39.882Z,0
2017-06-03T01:38:49.229Z,0
2017-06-03T01:48:58.632Z,0
2017-06-03T01:59:08.032Z,0
2017-06-03T02:09:17.437Z,0
2017-06-03T02:19:26.885Z,0
2017-06-03T02:29:36.265Z,0
2017-06-03T02:39:45.693Z,0
2017-06-03T02:49:55.098Z,0
2017-06-03T03:00:04.530Z,0
2017-06-03T03:10:13.833Z,0
2017-06-03T03:20:23.209Z,5
2017-06-03T03:30:32.641Z,10
2017-06-03T03:40:42.140Z,15
2017-06-03T03:50:51.509Z,15
2017-06-03T04:01:00.952Z,15
2017-06-03T04:11:10.338Z,35
2017-06-03T04:21:19.825Z,30
2017-06-03T04:31:29.255Z,25
2017-06-03T04:41:38.690Z,40
2017-06-03T04:51:48.134Z,50
2017-06-03T05:01:57.566Z,70
2017-06-03T05:12:07.005Z,155
2017-06-03T05:22:16.379Z,240
2017-06-03T05:32:25.700Z,155
2017-06-03T05:42:35.013Z,135
2017-06-03T05:52:44.302Z,195
2017-06-03T06:02:53.634Z,405
2017-06-03T06:13:02.902Z,245
2017-06-03T06:23:12.090Z,275
2017-06-03T06:33:21.283Z,390
2017-06-03T06:43:30.402Z,325
2017-06-03T06:53:39.484Z,360
2017-06-03T07:03:48.556Z,295
2017-06-03T07:13:57.522Z,355
2017-06-03T07:24:06.491Z,270
2017-06-03T07:34:15.487Z,140
2017-06-03T07:44:24.536Z,270
2017-06-03T07:54:33.548Z,465
2017-06-03T08:04:42.325Z,760
2017-06-03T08:14:50.843Z,985
2017-06-03T08:24:59.126Z,950
2017-06-03T08:35:07.217Z,1035
2017-06-03T08:45:15.239Z,1630
2017-06-03T08:55:23.127Z,1960
2017-06-03T09:05:30.738Z,2725
2017-06-03T09:15:38.196Z,2785
2017-06-03T09:25:45.355Z,3020
2017-06-03T09:35:52.390Z,2835
2017-06-03T09:45:59.303Z,2685
2017-06-03T09:56:06.293Z,2825
2017-06-03T10:06:13.339Z,2625
2017-06-03T10:16:20.385Z,2710
2017-06-03T10:26:27.569Z,2270
2017-06-03T10:36:34.274Z,2805
2017-06-03T10:46:41.180Z,2780
2017-06-03T10:56:48.082Z,2795
2017-06-03T11:06:54.984Z,2680
2017-06-03T11:17:01.867Z,2950
2017-06-03T11:27:08.698Z,2760
2017-06-03T11:37:15.519Z,3440
2017-06-03T11:47:22.312Z,2585
2017-06-03T11:57:29.123Z,1695
2017-06-03T12:07:36.027Z,1770
2017-06-03T12:17:42.988Z,1560
2017-06-03T12:27:50.052Z,3440
2017-06-03T12:37:56.877Z,1465
2017-06-03T12:48:03.663Z,1140
2017-06-03T12:58:10.662Z,1030
2017-06-03T13:08:17.846Z,1050
2017-06-03T13:18:25.074Z,1065
2017-06-03T13:28:32.327Z,1080
2017-06-03T13:38:39.603Z,1650
2017-06-03T13:48:46.736Z,1510
2017-06-03T13:58:53.695Z,630
2017-06-03T14:09:00.940Z,580
2017-06-03T14:19:08.394Z,700
2017-06-03T14:29:15.982Z,750
2017-06-03T14:39:23.588Z,545
2017-06-03T14:49:31.266Z,440
2017-06-03T14:59:39.083Z,735
2017-06-03T15:09:46.948Z,1265
2017-06-03T15:19:54.607Z,1890
2017-06-03T15:30:01.831Z,1610
2017-06-03T15:40:08.783Z,1665
2017-06-03T15:50:15.621Z,1095
2017-06-03T16:00:22.518Z,1195
2017-06-03T16:10:29.516Z,1065
2017-06-03T16:20:36.673Z,700
2017-06-03T16:40:51.423Z,620
2017-06-03T16:50:59.204Z,600
2017-06-03T17:01:06.697Z,575
2017-06-03T17:11:14.562Z,525
2017-06-03T17:21:22.468Z,470
2017-06-03T17:31:30.548Z,405
2017-06-03T17:41:38.720Z,355
2017-06-03T17:51:46.906Z,285
2017-06-03T18:01:55.247Z,215
2017-06-03T18:12:03.687Z,170
2017-06-03T18:22:12.246Z,135
2017-06-03T18:32:20.823Z,120
2017-06-03T18:42:29.411Z,65
2017-06-03T18:52:38.062Z,30
2017-06-03T19:02:46.750Z,15
2017-06-03T19:12:55.537Z,10
2017-06-03T19:23:04.343Z,10
2017-06-03T19:33:13.200Z,5
2017-06-03T19:43:22.062Z,0
2017-06-03T19:53:30.931Z,0
2017-06-03T20:03:39.896Z,0
2017-06-03T20:13:48.882Z,0
2017-06-03T20:23:57.929Z,0
2017-06-03T20:34:07.047Z,0
2017-06-03T20:44:16.216Z,0
2017-06-03T20:54:25.416Z,0
2017-06-03T21:04:34.621Z,0
2017-06-03T21:14:43.788Z,0
2017-06-03T21:24:52.976Z,0
2017-06-03T21:35:02.182Z,0
2017-06-03T21:45:11.421Z,0
2017-06-03T21:55:20.689Z,0
2017-06-03T22:05:30.007Z,0
2017-06-03T22:15:39.375Z,0
2017-06-03T22:25:48.717Z,0
2017-06-03T22:35:58.057Z,0
2017-06-03T22:46:07.428Z,0
2017-06-03T22:56:16.886Z,0
2017-06-03T23:06:26.372Z,0
2017-06-03T23:16:35.912Z,0
2017-06-03T23:26:45.456Z,0
2017-06-03T23:36:54.981Z,0
2017-06-03T23:47:04.564Z,0
2017-06-03T23:57:14.152Z,0
